Details From CYXX - Abbotsford
To CYKA - Kamloops
Flight Number -
Tags generated
Created
Modified
Stats Distance 125 nm / 232 km
Max Altitude 7,000 ft / 2,134 m
Waypoints 3
Social Downloads 0
Likes 0
Share VATSIM

Download

Looking for another format? Having issues loading an existing format? Contact us
Advertisement - Login to hide

Notes

Basic altitude profile: - Ascent Rate: 2500ft/min - Ascent Speed: 250kts - Cruise Altitude: 35000ft - Cruise Speed: 420kts - Descent Rate: 1500ft/min - Descent Speed: 250kts Options: - Use NATs: yes - Use PACOTS: yes - Use low airways: yes - Use high airways: yes

Route

CYXX HARAS CYKA

ID Type Via Altitude Latitude Longitude Leg Dist Tot Dist Heading (true) Name
O CYXX APT - 0 ft / 0 m 49.02442˚ -122.36891˚ - 0 nm - Abbotsford
HARAS FIX - 7,000 ft / 2,134 m 49.27861˚ -122.04806˚ 19 nm 19 nm 39° / 40° -
O CYKA APT - 0 ft / 0 m 50.70187˚ -120.44271˚ 105 nm 125 nm 35° / 37° Kamloops

Altitude Profile

Advertisement - Login to hide

CYXX

Details ICAO CYXX (YXX)
Name Abbotsford
Region Canada
Timezone America/Vancouver (UTC-8.0)
Stats Elevation 189 ft / 58 m (AMSL)
Location 49.024424° -122.368913°
Runways 3
Magnetic Variation 16.078° E

METAR

CYXX 132100Z 28003KT 30SM FEW180 SCT220 09/03 A3043 RMK AC2CI2 SLP308

Decode

TAF

TAF CYXX 131738Z 1318/1418 02005KT P6SM SCT220 RMK NXT FCST BY 140000Z

Decode

Departure Runways

ID Width Length Bearing (true) Bearing (mag) Surface Threshold Offset Overrun Length
01 200 ft / 61 m 5,263 ft / 1,604 m 25.71° 9.63° Asphalt 249 ft / 76 m 0 ft / 0 m
01L 95 ft / 29 m 1,480 ft / 451 m 25.01° 8.93° Grass 0 ft / 0 m 0 ft / 0 m
07 200 ft / 61 m 9,576 ft / 2,919 m 85.76° 69.68° Asphalt 0 ft / 0 m 0 ft / 0 m
19 200 ft / 61 m 5,263 ft / 1,604 m 205.72° 189.64° Asphalt 0 ft / 0 m 0 ft / 0 m
19R 95 ft / 29 m 1,480 ft / 451 m 205.01° 188.93° Grass 0 ft / 0 m 0 ft / 0 m
25 200 ft / 61 m 9,576 ft / 2,919 m 265.79° 249.71° Asphalt 430 ft / 131 m 0 ft / 0 m

CYKA

Details ICAO CYKA (YKA)
Name Kamloops
Region Canada
Timezone America/Vancouver (UTC-8.0)
Stats Elevation 1,133 ft / 345 m (AMSL)
Location 50.701875° -120.442709°
Runways 2
Magnetic Variation 16.080° E

METAR

CYKA 132100Z 12006KT 15SM FEW012 SCT023 BKN240 01/M02 A3058 RMK SF1SC2CI3 SLP375

Decode

TAF

TAF CYKA 131838Z 1319/1407 10005KT P6SM BKN015 TEMPO 1319/1407 BKN025 RMK NXT FCST BY 140100Z

Decode

Destination Runways

ID Width Length Bearing (true) Bearing (mag) Surface Threshold Offset Overrun Length
04 49 ft / 15 m 2,815 ft / 858 m 61.02° 44.94° Asphalt 686 ft / 209 m 0 ft / 0 m
08 148 ft / 45 m 5,999 ft / 1,828 m 103.28° 87.20° Asphalt 0 ft / 0 m 0 ft / 0 m
22 49 ft / 15 m 2,815 ft / 858 m 241.03° 224.95° Asphalt 0 ft / 0 m 0 ft / 0 m
26 148 ft / 45 m 5,999 ft / 1,828 m 283.30° 267.22° Asphalt 0 ft / 0 m 0 ft / 0 m

Approach Navaids

Runway Type Ident Frequency Range Bearing (true) Bearing (mag) Slope Elevation
26 Localiser XPP 109.90 MHz 18 nm / 33 km 285.00° 268.92° - 1,133 ft / 345 m (AMSL)

Popular Alternatives